sensor_id;sensor_type;location;lat;lon;timestamp;pressure;altitude;pressure_sealevel;temperature;humidity
72612;BME280;60655;52.182;4.474;2023-04-10T00:00:52;102050.56;;;11.85;63.55
72612;BME280;60655;52.182;4.474;2023-04-10T00:03:00;102043.56;;;11.77;64.39
72612;BME280;60655;52.182;4.474;2023-04-10T00:05:02;102045.03;;;11.80;64.33
72612;BME280;60655;52.182;4.474;2023-04-10T00:07:03;102035.91;;;11.68;63.84
72612;BME280;60655;52.182;4.474;2023-04-10T00:09:04;102028.25;;;11.79;66.20
72612;BME280;60655;52.182;4.474;2023-04-10T00:11:05;102030.69;;;11.81;65.97
72612;BME280;60655;52.182;4.474;2023-04-10T00:13:06;102025.78;;;11.84;65.01
72612;BME280;60655;52.182;4.474;2023-04-10T00:15:07;102025.09;;;11.76;65.26
72612;BME280;60655;52.182;4.474;2023-04-10T00:17:08;102026.88;;;11.69;65.05
72612;BME280;60655;52.182;4.474;2023-04-10T00:19:09;102029.84;;;11.53;65.88
72612;BME280;60655;52.182;4.474;2023-04-10T00:21:10;102028.00;;;11.53;65.40
72612;BME280;60655;52.182;4.474;2023-04-10T00:23:12;102029.50;;;11.62;64.38
72612;BME280;60655;52.182;4.474;2023-04-10T00:25:13;102025.25;;;11.68;65.30
72612;BME280;60655;52.182;4.474;2023-04-10T00:27:14;102021.72;;;11.61;64.13
72612;BME280;60655;52.182;4.474;2023-04-10T00:29:15;102030.19;;;11.71;65.37
72612;BME280;60655;52.182;4.474;2023-04-10T00:31:16;102020.31;;;11.65;65.37
72612;BME280;60655;52.182;4.474;2023-04-10T00:33:17;102026.00;;;11.62;64.03
72612;BME280;60655;52.182;4.474;2023-04-10T00:35:18;102017.31;;;11.46;64.48
72612;BME280;60655;52.182;4.474;2023-04-10T00:37:19;102016.81;;;11.64;67.08
72612;BME280;60655;52.182;4.474;2023-04-10T00:39:21;102008.97;;;11.56;65.52
72612;BME280;60655;52.182;4.474;2023-04-10T00:41:22;101998.50;;;11.48;65.58
72612;BME280;60655;52.182;4.474;2023-04-10T00:43:23;102007.50;;;11.47;64.15
72612;BME280;60655;52.182;4.474;2023-04-10T00:45:24;102008.19;;;11.62;66.13
72612;BME280;60655;52.182;4.474;2023-04-10T00:47:26;102003.91;;;11.61;66.32
72612;BME280;60655;52.182;4.474;2023-04-10T00:49:27;102006.72;;;11.53;65.56
72612;BME280;60655;52.182;4.474;2023-04-10T00:51:28;102003.25;;;11.59;66.65
72612;BME280;60655;52.182;4.474;2023-04-10T00:53:29;102003.19;;;11.46;66.97
72612;BME280;60655;52.182;4.474;2023-04-10T00:55:31;101992.44;;;11.61;67.35
72612;BME280;60655;52.182;4.474;2023-04-10T00:57:32;101985.66;;;11.58;66.63
72612;BME280;60655;52.182;4.474;2023-04-10T00:59:34;101979.38;;;11.66;67.09
72612;BME280;60655;52.182;4.474;2023-04-10T01:01:35;101977.28;;;11.61;66.88
72612;BME280;60655;52.182;4.474;2023-04-10T01:03:37;101976.81;;;11.51;65.50
72612;BME280;60655;52.182;4.474;2023-04-10T01:05:54;101961.75;;;11.37;66.16
72612;BME280;60655;52.182;4.474;2023-04-10T01:08:15;101963.47;;;11.44;67.56
72612;BME280;60655;52.182;4.474;2023-04-10T01:12:57;101952.78;;;11.38;67.44
72612;BME280;60655;52.182;4.474;2023-04-10T01:15:09;101950.69;;;11.33;66.67
72612;BME280;60655;52.182;4.474;2023-04-10T01:17:21;101946.44;;;11.11;67.00
72612;BME280;60655;52.182;4.474;2023-04-10T01:21:36;101946.09;;;11.21;67.49
72612;BME280;60655;52.182;4.474;2023-04-10T01:26:05;101946.94;;;11.28;68.29
72612;BME280;60655;52.182;4.474;2023-04-10T01:30:20;101936.66;;;11.18;67.71
72612;BME280;60655;52.182;4.474;2023-04-10T01:32:22;101931.09;;;11.13;67.33
72612;BME280;60655;52.182;4.474;2023-04-10T01:34:32;101936.16;;;11.08;66.92
72612;BME280;60655;52.182;4.474;2023-04-10T01:36:40;101930.22;;;11.06;67.41
72612;BME280;60655;52.182;4.474;2023-04-10T01:38:43;101929.28;;;11.13;68.47
72612;BME280;60655;52.182;4.474;2023-04-10T01:40:49;101937.50;;;10.97;67.69
72612;BME280;60655;52.182;4.474;2023-04-10T01:42:54;101930.22;;;11.06;68.09
72612;BME280;60655;52.182;4.474;2023-04-10T01:44:57;101920.72;;;11.18;67.83
72612;BME280;60655;52.182;4.474;2023-04-10T01:46:59;101931.09;;;11.13;67.48
72612;BME280;60655;52.182;4.474;2023-04-10T01:49:01;101919.69;;;11.19;68.63
72612;BME280;60655;52.182;4.474;2023-04-10T01:51:05;101920.72;;;11.18;68.46
72612;BME280;60655;52.182;4.474;2023-04-10T01:53:08;101915.78;;;11.15;67.92
72612;BME280;60655;52.182;4.474;2023-04-10T01:55:10;101923.75;;;11.15;68.57
72612;BME280;60655;52.182;4.474;2023-04-10T01:57:11;101920.66;;;11.11;68.10
72612;BME280;60655;52.182;4.474;2023-04-10T01:59:15;101905.34;;;11.13;68.77
72612;BME280;60655;52.182;4.474;2023-04-10T02:01:20;101915.16;;;11.13;69.06
72612;BME280;60655;52.182;4.474;2023-04-10T02:03:21;101911.03;;;11.10;68.54
72612;BME280;60655;52.182;4.474;2023-04-10T02:05:26;101908.94;;;11.06;68.11
72612;BME280;60655;52.182;4.474;2023-04-10T02:07:48;101909.44;;;11.16;68.71
72612;BME280;60655;52.182;4.474;2023-04-10T02:10:10;101913.13;;;11.15;69.14
72612;BME280;60655;52.182;4.474;2023-04-10T02:12:15;101912.94;;;11.16;69.36
72612;BME280;60655;52.182;4.474;2023-04-10T02:14:21;101911.03;;;11.10;68.68
72612;BME280;60655;52.182;4.474;2023-04-10T02:16:22;101907.75;;;11.08;68.80
72612;BME280;60655;52.182;4.474;2023-04-10T02:18:24;101902.44;;;11.08;68.93
72612;BME280;60655;52.182;4.474;2023-04-10T02:20:26;101909.13;;;11.04;67.13
72612;BME280;60655;52.182;4.474;2023-04-10T02:22:27;101909.78;;;11.06;68.72
72612;BME280;60655;52.182;4.474;2023-04-10T02:24:29;101902.72;;;10.92;68.66
72612;BME280;60655;52.182;4.474;2023-04-10T02:26:51;101910.91;;;10.97;68.69
72612;BME280;60655;52.182;4.474;2023-04-10T02:28:52;101905.13;;;10.87;69.14
72612;BME280;60655;52.182;4.474;2023-04-10T02:30:53;101913.84;;;10.81;68.62
72612;BME280;60655;52.182;4.474;2023-04-10T02:32:54;101912.16;;;10.95;68.60
72612;BME280;60655;52.182;4.474;2023-04-10T02:34:55;101919.53;;;10.99;70.52
72612;BME280;60655;52.182;4.474;2023-04-10T02:36:57;101922.38;;;10.98;69.99
72612;BME280;60655;52.182;4.474;2023-04-10T02:38:58;101922.78;;;10.95;69.31
72612;BME280;60655;52.182;4.474;2023-04-10T02:40:58;101929.75;;;10.96;69.72
72612;BME280;60655;52.182;4.474;2023-04-10T02:43:00;101920.06;;;10.88;69.58
72612;BME280;60655;52.182;4.474;2023-04-10T02:45:01;101928.31;;;11.00;70.63
72612;BME280;60655;52.182;4.474;2023-04-10T02:47:02;101928.09;;;10.95;70.12
72612;BME280;60655;52.182;4.474;2023-04-10T02:49:03;101928.56;;;11.05;70.30
72612;BME280;60655;52.182;4.474;2023-04-10T02:51:04;101923.78;;;10.94;70.32
72612;BME280;60655;52.182;4.474;2023-04-10T02:53:06;101918.59;;;10.86;69.81
72612;BME280;60655;52.182;4.474;2023-04-10T02:55:07;101917.28;;;10.96;71.10
72612;BME280;60655;52.182;4.474;2023-04-10T02:57:08;101902.28;;;10.89;69.48
72612;BME280;60655;52.182;4.474;2023-04-10T02:59:10;101914.31;;;10.85;70.10
72612;BME280;60655;52.182;4.474;2023-04-10T03:01:11;101907.78;;;10.87;70.11
72612;BME280;60655;52.182;4.474;2023-04-10T03:03:12;101906.38;;;10.91;70.05
72612;BME280;60655;52.182;4.474;2023-04-10T03:05:13;101909.75;;;10.78;70.93
72612;BME280;60655;52.182;4.474;2023-04-10T03:07:14;101911.19;;;10.81;70.88
72612;BME280;60655;52.182;4.474;2023-04-10T03:09:15;101900.69;;;10.94;71.08
72612;BME280;60655;52.182;4.474;2023-04-10T03:11:16;101902.78;;;10.77;69.75
72612;BME280;60655;52.182;4.474;2023-04-10T03:13:17;101907.59;;;10.89;71.74
72612;BME280;60655;52.182;4.474;2023-04-10T03:15:18;101906.84;;;10.95;71.51
72612;BME280;60655;52.182;4.474;2023-04-10T03:17:19;101902.34;;;10.74;68.85
72612;BME280;60655;52.182;4.474;2023-04-10T03:19:20;101891.03;;;10.65;70.91
72612;BME280;60655;52.182;4.474;2023-04-10T03:21:21;101886.00;;;10.77;71.32
72612;BME280;60655;52.182;4.474;2023-04-10T03:23:22;101889.88;;;10.74;70.48
72612;BME280;60655;52.182;4.474;2023-04-10T03:25:23;101889.69;;;10.76;71.37
72612;BME280;60655;52.182;4.474;2023-04-10T03:27:24;101891.13;;;10.78;70.99
72612;BME280;60655;52.182;4.474;2023-04-10T03:29:27;101889.69;;;10.76;71.14
72612;BME280;60655;52.182;4.474;2023-04-10T03:31:28;101881.78;;;10.82;71.19
72612;BME280;60655;52.182;4.474;2023-04-10T03:33:30;101878.66;;;10.79;71.75
72612;BME280;60655;52.182;4.474;2023-04-10T03:35:31;101865.94;;;10.74;71.52
72612;BME280;60655;52.182;4.474;2023-04-10T03:37:32;101869.38;;;10.68;70.80
72612;BME280;60655;52.182;4.474;2023-04-10T03:39:33;101861.84;;;10.72;71.33
72612;BME280;60655;52.182;4.474;2023-04-10T03:41:34;101863.44;;;10.66;71.69
72612;BME280;60655;52.182;4.474;2023-04-10T03:43:35;101858.81;;;10.75;71.26
72612;BME280;60655;52.182;4.474;2023-04-10T03:45:36;101853.31;;;10.55;69.53
72612;BME280;60655;52.182;4.474;2023-04-10T03:47:37;101862.69;;;10.51;70.62
72612;BME280;60655;52.182;4.474;2023-04-10T03:49:38;101848.38;;;10.52;70.62
72612;BME280;60655;52.182;4.474;2023-04-10T03:51:39;101847.19;;;10.55;70.27
72612;BME280;60655;52.182;4.474;2023-04-10T03:53:40;101856.72;;;10.70;71.31
72612;BME280;60655;52.182;4.474;2023-04-10T03:55:41;101853.84;;;10.65;71.31
72612;BME280;60655;52.182;4.474;2023-04-10T03:57:42;101855.03;;;10.63;70.97
72612;BME280;60655;52.182;4.474;2023-04-10T03:59:43;101853.03;;;10.71;71.37
72612;BME280;60655;52.182;4.474;2023-04-10T04:01:44;101853.28;;;10.76;70.70
72612;BME280;60655;52.182;4.474;2023-04-10T04:03:45;101844.81;;;10.88;70.68
72612;BME280;60655;52.182;4.474;2023-04-10T04:05:46;101845.69;;;10.73;70.13
72612;BME280;60655;52.182;4.474;2023-04-10T04:07:47;101841.75;;;10.63;70.02
72612;BME280;60655;52.182;4.474;2023-04-10T04:09:48;101828.84;;;10.60;70.93
72612;BME280;60655;52.182;4.474;2023-04-10T04:11:49;101845.94;;;10.78;71.28
72612;BME280;60655;52.182;4.474;2023-04-10T04:13:50;101843.69;;;10.75;69.85
72612;BME280;60655;52.182;4.474;2023-04-10T04:15:51;101839.56;;;10.73;70.81
72612;BME280;60655;52.182;4.474;2023-04-10T04:17:52;101840.50;;;10.87;71.19
72612;BME280;60655;52.182;4.474;2023-04-10T04:19:53;101846.41;;;10.82;68.98
72612;BME280;60655;52.182;4.474;2023-04-10T04:21:54;101837.16;;;10.78;69.92
72612;BME280;60655;52.182;4.474;2023-04-10T04:23:55;101815.00;;;10.64;68.37
72612;BME280;60655;52.182;4.474;2023-04-10T04:25:56;101826.53;;;10.78;70.49
72612;BME280;60655;52.182;4.474;2023-04-10T04:27:57;101826.47;;;10.71;68.70
72612;BME280;60655;52.182;4.474;2023-04-10T04:29:58;101826.16;;;10.81;70.06
72612;BME280;60655;52.182;4.474;2023-04-10T04:31:59;101825.38;;;10.87;69.40
72612;BME280;60655;52.182;4.474;2023-04-10T04:34:00;101817.72;;;10.77;69.64
72612;BME280;60655;52.182;4.474;2023-04-10T04:36:01;101818.31;;;10.73;68.66
72612;BME280;60655;52.182;4.474;2023-04-10T04:38:02;101814.81;;;10.72;67.54
72612;BME280;60655;52.182;4.474;2023-04-10T04:40:03;101819.28;;;10.65;68.41
72612;BME280;60655;52.182;4.474;2023-04-10T04:42:05;101799.38;;;10.82;69.86
72612;BME280;60655;52.182;4.474;2023-04-10T04:44:09;101804.44;;;10.77;68.02
72612;BME280;60655;52.182;4.474;2023-04-10T04:46:10;101804.25;;;10.79;69.52
72612;BME280;60655;52.182;4.474;2023-04-10T04:48:11;101798.56;;;10.82;70.21
72612;BME280;60655;52.182;4.474;2023-04-10T04:50:12;101799.38;;;10.82;69.20
72612;BME280;60655;52.182;4.474;2023-04-10T04:52:13;101805.19;;;10.99;69.30
72612;BME280;60655;52.182;4.474;2023-04-10T04:54:14;101807.84;;;10.99;69.25
72612;BME280;60655;52.182;4.474;2023-04-10T04:56:15;101801.91;;;10.97;67.36
72612;BME280;60655;52.182;4.474;2023-04-10T04:58:16;101799.50;;;11.02;69.01
72612;BME280;60655;52.182;4.474;2023-04-10T05:00:17;101802.19;;;11.09;68.97
72612;BME280;60655;52.182;4.474;2023-04-10T05:02:18;101796.06;;;11.08;69.08
72612;BME280;60655;52.182;4.474;2023-04-10T05:04:22;101799.38;;;11.17;69.38
72612;BME280;60655;52.182;4.474;2023-04-10T05:06:23;101802.59;;;11.06;68.19
72612;BME280;60655;52.182;4.474;2023-04-10T05:08:23;101803.25;;;11.14;70.26
72612;BME280;60655;52.182;4.474;2023-04-10T05:10:25;101796.44;;;11.05;68.81
72612;BME280;60655;52.182;4.474;2023-04-10T05:12:26;101788.44;;;10.99;69.65
72612;BME280;60655;52.182;4.474;2023-04-10T05:14:27;101788.91;;;11.09;68.60
72612;BME280;60655;52.182;4.474;2023-04-10T05:16:28;101787.44;;;11.06;68.15
72612;BME280;60655;52.182;4.474;2023-04-10T05:18:28;101799.06;;;10.99;66.26
72612;BME280;60655;52.182;4.474;2023-04-10T05:20:30;101792.66;;;10.87;67.31
72612;BME280;60655;52.182;4.474;2023-04-10T05:22:31;101791.69;;;10.94;68.29
72612;BME280;60655;52.182;4.474;2023-04-10T05:24:32;101800.31;;;11.03;68.87
72612;BME280;60655;52.182;4.474;2023-04-10T05:26:33;101799.38;;;11.17;68.96
72612;BME280;60655;52.182;4.474;2023-04-10T05:28:34;101791.84;;;11.21;68.46
72612;BME280;60655;52.182;4.474;2023-04-10T05:30:35;101789.47;;;11.04;67.99
72612;BME280;60655;52.182;4.474;2023-04-10T05:32:36;101792.81;;;11.13;67.98
72612;BME280;60655;52.182;4.474;2023-04-10T05:34:37;101781.41;;;11.19;69.08
72612;BME280;60655;52.182;4.474;2023-04-10T05:36:38;101786.56;;;10.93;67.40
72612;BME280;60655;52.182;4.474;2023-04-10T05:38:39;101777.34;;;10.89;67.19
72612;BME280;60655;52.182;4.474;2023-04-10T05:40:43;101781.31;;;11.06;66.45
72612;BME280;60655;52.182;4.474;2023-04-10T05:42:47;101775.84;;;11.14;68.19
72612;BME280;60655;52.182;4.474;2023-04-10T05:44:48;101776.88;;;11.13;66.73
72612;BME280;60655;52.182;4.474;2023-04-10T05:46:51;101778.81;;;10.98;65.42
72612;BME280;60655;52.182;4.474;2023-04-10T05:48:52;101773.38;;;11.12;66.44
72612;BME280;60655;52.182;4.474;2023-04-10T05:50:53;101767.03;;;11.13;67.47
72612;BME280;60655;52.182;4.474;2023-04-10T05:52:54;101759.34;;;11.25;68.70
72612;BME280;60655;52.182;4.474;2023-04-10T05:54:55;101770.34;;;11.15;67.00
72612;BME280;60655;52.182;4.474;2023-04-10T05:56:56;101764.16;;;11.08;64.84
72612;BME280;60655;52.182;4.474;2023-04-10T05:58:57;101778.16;;;10.61;64.75
72612;BME280;60655;52.182;4.474;2023-04-10T06:00:58;101766.22;;;10.78;65.08
72612;BME280;60655;52.182;4.474;2023-04-10T06:02:59;101770.19;;;10.89;65.66
72612;BME280;60655;52.182;4.474;2023-04-10T06:05:00;101757.31;;;10.93;66.91
72612;BME280;60655;52.182;4.474;2023-04-10T06:07:01;101760.81;;;10.93;66.90
72612;BME280;60655;52.182;4.474;2023-04-10T06:09:02;101760.81;;;10.93;66.13
72612;BME280;60655;52.182;4.474;2023-04-10T06:11:03;101754.88;;;10.98;68.19
72612;BME280;60655;52.182;4.474;2023-04-10T06:13:04;101756.75;;;11.04;67.04
72612;BME280;60655;52.182;4.474;2023-04-10T06:15:05;101753.94;;;11.12;64.86
72612;BME280;60655;52.182;4.474;2023-04-10T06:17:06;101748.84;;;11.17;65.43
72612;BME280;60655;52.182;4.474;2023-04-10T06:19:07;101743.50;;;11.10;64.88
72612;BME280;60655;52.182;4.474;2023-04-10T06:21:08;101740.06;;;11.16;65.78
72612;BME280;60655;52.182;4.474;2023-04-10T06:23:09;101735.59;;;11.24;66.00
72612;BME280;60655;52.182;4.474;2023-04-10T06:25:12;101734.69;;;11.10;65.40
72612;BME280;60655;52.182;4.474;2023-04-10T06:27:13;101732.78;;;10.91;64.34
72612;BME280;60655;52.182;4.474;2023-04-10T06:29:14;101720.94;;;10.93;65.90
72612;BME280;60655;52.182;4.474;2023-04-10T06:31:18;101712.56;;;11.03;66.97
72612;BME280;60655;52.182;4.474;2023-04-10T06:33:19;101716.47;;;11.07;64.67
72612;BME280;60655;52.182;4.474;2023-04-10T06:35:20;101708.47;;;10.94;66.14
72612;BME280;60655;52.182;4.474;2023-04-10T06:37:28;101703.78;;;10.61;65.62
72612;BME280;60655;52.182;4.474;2023-04-10T06:39:32;101701.56;;;10.71;65.89
72612;BME280;60655;52.182;4.474;2023-04-10T06:41:33;101709.00;;;10.82;66.03
72612;BME280;60655;52.182;4.474;2023-04-10T06:43:35;101701.06;;;10.89;66.09
72612;BME280;60655;52.182;4.474;2023-04-10T06:45:37;101702.72;;;10.90;65.27
72612;BME280;60655;52.182;4.474;2023-04-10T06:47:38;101702.13;;;10.95;64.83
72612;BME280;60655;52.182;4.474;2023-04-10T06:49:39;101699.66;;;11.00;66.59
72612;BME280;60655;52.182;4.474;2023-04-10T06:51:40;101692.13;;;11.03;67.24
72612;BME280;60655;52.182;4.474;2023-04-10T06:53:41;101694.38;;;11.06;66.62
72612;BME280;60655;52.182;4.474;2023-04-10T06:55:42;101693.44;;;11.27;68.02
72612;BME280;60655;52.182;4.474;2023-04-10T06:57:43;101696.69;;;11.16;66.07
72612;BME280;60655;52.182;4.474;2023-04-10T06:59:45;101693.63;;;11.19;67.50
72612;BME280;60655;52.182;4.474;2023-04-10T07:01:46;101690.16;;;11.19;66.89
72612;BME280;60655;52.182;4.474;2023-04-10T07:03:47;101694.03;;;11.16;66.15
72612;BME280;60655;52.182;4.474;2023-04-10T07:05:48;101694.19;;;11.08;67.29
72612;BME280;60655;52.182;4.474;2023-04-10T07:07:49;101689.88;;;11.07;65.66
72612;BME280;60655;52.182;4.474;2023-04-10T07:09:50;101695.38;;;10.99;68.07
72612;BME280;60655;52.182;4.474;2023-04-10T07:11:51;101686.06;;;11.16;68.35
72612;BME280;60655;52.182;4.474;2023-04-10T07:13:52;101692.75;;;11.05;64.89
72612;BME280;60655;52.182;4.474;2023-04-10T07:15:57;101680.66;;;11.03;64.92
72612;BME280;60655;52.182;4.474;2023-04-10T07:17:58;101682.75;;;11.14;65.21
72612;BME280;60655;52.182;4.474;2023-04-10T07:19:59;101675.81;;;11.13;66.51
72612;BME280;60655;52.182;4.474;2023-04-10T07:22:00;101659.25;;;11.18;66.77
72612;BME280;60655;52.182;4.474;2023-04-10T07:24:01;101660.44;;;11.08;65.65
72612;BME280;60655;52.182;4.474;2023-04-10T07:26:03;101665.53;;;10.97;65.74
72612;BME280;60655;52.182;4.474;2023-04-10T07:28:04;101652.63;;;10.94;66.75
72612;BME280;60655;52.182;4.474;2023-04-10T07:30:05;101648.59;;;11.11;66.10
72612;BME280;60655;52.182;4.474;2023-04-10T07:32:07;101650.06;;;11.20;67.45
72612;BME280;60655;52.182;4.474;2023-04-10T07:34:09;101643.47;;;11.09;65.75
72612;BME280;60655;52.182;4.474;2023-04-10T07:36:11;101643.53;;;11.23;66.29
72612;BME280;60655;52.182;4.474;2023-04-10T07:38:11;101646.38;;;11.21;66.08
72612;BME280;60655;52.182;4.474;2023-04-10T07:40:12;101642.28;;;11.19;64.91
72612;BME280;60655;52.182;4.474;2023-04-10T07:42:13;101638.41;;;11.21;67.66
72612;BME280;60655;52.182;4.474;2023-04-10T07:44:15;101645.16;;;11.24;65.64
72612;BME280;60655;52.182;4.474;2023-04-10T07:46:18;101642.72;;;11.22;66.54
72612;BME280;60655;52.182;4.474;2023-04-10T07:48:19;101637.41;;;11.35;65.30
72612;BME280;60655;52.182;4.474;2023-04-10T07:50:20;101632.94;;;11.49;66.25
72612;BME280;60655;52.182;4.474;2023-04-10T07:52:21;101628.81;;;11.33;66.17
72612;BME280;60655;52.182;4.474;2023-04-10T07:54:22;101623.06;;;11.23;65.41
72612;BME280;60655;52.182;4.474;2023-04-10T07:56:23;101621.44;;;11.22;66.13
72612;BME280;60655;52.182;4.474;2023-04-10T07:58:24;101611.59;;;11.29;65.59
72612;BME280;60655;52.182;4.474;2023-04-10T08:00:25;101616.97;;;11.62;66.74
72612;BME280;60655;52.182;4.474;2023-04-10T08:02:26;101610.19;;;11.40;65.74
72612;BME280;60655;52.182;4.474;2023-04-10T08:04:27;101609.56;;;11.31;65.48
72612;BME280;60655;52.182;4.474;2023-04-10T08:06:28;101600.19;;;11.48;64.89
72612;BME280;60655;52.182;4.474;2023-04-10T08:08:29;101600.56;;;11.32;65.28
72612;BME280;60655;52.182;4.474;2023-04-10T08:10:30;101597.53;;;11.48;65.63
72612;BME280;60655;52.182;4.474;2023-04-10T08:12:32;101591.00;;;11.51;64.14
72612;BME280;60655;52.182;4.474;2023-04-10T08:14:34;101594.44;;;11.58;65.27
72612;BME280;60655;52.182;4.474;2023-04-10T08:16:35;101591.19;;;11.69;66.08
72612;BME280;60655;52.182;4.474;2023-04-10T08:18:36;101584.28;;;11.81;65.33
72612;BME280;60655;52.182;4.474;2023-04-10T08:20:37;101583.41;;;11.74;64.87
72612;BME280;60655;52.182;4.474;2023-04-10T08:22:38;101586.88;;;11.68;64.20
72612;BME280;60655;52.182;4.474;2023-04-10T08:24:39;101584.28;;;11.81;65.25
72612;BME280;60655;52.182;4.474;2023-04-10T08:26:40;101571.75;;;11.95;65.84
72612;BME280;60655;52.182;4.474;2023-04-10T08:28:41;101574.41;;;12.02;65.00
72612;BME280;60655;52.182;4.474;2023-04-10T08:30:46;101562.31;;;11.93;65.02
72612;BME280;60655;52.182;4.474;2023-04-10T08:32:47;101557.41;;;12.09;65.58
72612;BME280;60655;52.182;4.474;2023-04-10T08:34:48;101555.56;;;12.03;64.30
72612;BME280;60655;52.182;4.474;2023-04-10T08:36:49;101570.31;;;11.93;63.50
72612;BME280;60655;52.182;4.474;2023-04-10T08:38:50;101557.00;;;12.06;64.78
72612;BME280;60655;52.182;4.474;2023-04-10T08:40:51;101559.00;;;12.24;63.17
72612;BME280;60655;52.182;4.474;2023-04-10T08:42:52;101545.09;;;12.08;62.86
72612;BME280;60655;52.182;4.474;2023-04-10T08:44:53;101540.56;;;12.15;62.90
72612;BME280;60655;52.182;4.474;2023-04-10T08:46:57;101539.59;;;12.03;61.69
72612;BME280;60655;52.182;4.474;2023-04-10T08:49:03;101543.69;;;11.99;61.86
72612;BME280;60655;52.182;4.474;2023-04-10T08:51:06;101542.63;;;12.13;62.24
72612;BME280;60655;52.182;4.474;2023-04-10T08:53:11;101523.13;;;12.20;61.15
72612;BME280;60655;52.182;4.474;2023-04-10T08:55:13;101525.09;;;12.44;61.26
72612;BME280;60655;52.182;4.474;2023-04-10T08:57:15;101514.91;;;12.28;60.78
72612;BME280;60655;52.182;4.474;2023-04-10T08:59:20;101527.00;;;12.37;60.67
72612;BME280;60655;52.182;4.474;2023-04-10T09:01:22;101515.22;;;12.51;61.08
72612;BME280;60655;52.182;4.474;2023-04-10T09:03:23;101507.91;;;12.40;60.72
72612;BME280;60655;52.182;4.474;2023-04-10T09:05:28;101507.22;;;12.51;60.57
72612;BME280;60655;52.182;4.474;2023-04-10T09:07:30;101516.88;;;12.45;62.08
72612;BME280;60655;52.182;4.474;2023-04-10T09:09:31;101512.75;;;12.56;60.40
72612;BME280;60655;52.182;4.474;2023-04-10T09:13:54;101508.03;;;12.58;60.57
72612;BME280;60655;52.182;4.474;2023-04-10T09:15:58;101503.31;;;12.60;61.70
72612;BME280;60655;52.182;4.474;2023-04-10T09:18:01;101504.00;;;12.80;61.82
72612;BME280;60655;52.182;4.474;2023-04-10T09:20:19;101500.72;;;12.78;60.10
72612;BME280;60655;52.182;4.474;2023-04-10T09:22:31;101479.31;;;12.60;60.72
72612;BME280;60655;52.182;4.474;2023-04-10T09:24:37;101447.88;;;12.37;60.47
72612;BME280;60655;52.182;4.474;2023-04-10T09:26:38;101476.75;;;12.40;61.41
72612;BME280;60655;52.182;4.474;2023-04-10T09:28:55;101469.25;;;12.62;61.36
72612;BME280;60655;52.182;4.474;2023-04-10T09:30:56;101472.09;;;12.67;61.38
72612;BME280;60655;52.182;4.474;2023-04-10T09:32:57;101466.69;;;12.80;62.36
72612;BME280;60655;52.182;4.474;2023-04-10T09:34:58;101456.47;;;12.71;60.41
72612;BME280;60655;52.182;4.474;2023-04-10T09:37:00;101447.09;;;12.68;61.10
72612;BME280;60655;52.182;4.474;2023-04-10T09:39:03;101449.47;;;12.76;60.99
72612;BME280;60655;52.182;4.474;2023-04-10T09:41:07;101453.13;;;12.82;60.67
72612;BME280;60655;52.182;4.474;2023-04-10T09:43:22;101464.78;;;12.88;61.05
72612;BME280;60655;52.182;4.474;2023-04-10T09:45:23;101462.72;;;12.90;61.08
72612;BME280;60655;52.182;4.474;2023-04-10T09:47:25;101463.06;;;12.68;61.62
72612;BME280;60655;52.182;4.474;2023-04-10T09:49:26;101451.66;;;12.86;61.30
72612;BME280;60655;52.182;4.474;2023-04-10T09:51:29;101457.72;;;13.00;61.64
72612;BME280;60655;52.182;4.474;2023-04-10T09:53:47;101434.22;;;12.90;61.31
72612;BME280;60655;52.182;4.474;2023-04-10T09:55:49;101439.00;;;13.06;61.32
72612;BME280;60655;52.182;4.474;2023-04-10T09:57:50;101439.00;;;13.06;60.38
72612;BME280;60655;52.182;4.474;2023-04-10T09:59:53;101428.72;;;13.10;59.99
72612;BME280;60655;52.182;4.474;2023-04-10T10:01:54;101439.81;;;13.07;61.28
72612;BME280;60655;52.182;4.474;2023-04-10T10:04:02;101439.22;;;13.05;59.72
72612;BME280;60655;52.182;4.474;2023-04-10T10:06:04;101434.09;;;13.03;60.22
72612;BME280;60655;52.182;4.474;2023-04-10T10:08:08;101433.38;;;13.21;59.42
72612;BME280;60655;52.182;4.474;2023-04-10T10:10:10;101424.03;;;13.30;59.41
72612;BME280;60655;52.182;4.474;2023-04-10T10:12:15;101427.78;;;13.66;58.23
72612;BME280;60655;52.182;4.474;2023-04-10T10:14:19;101418.97;;;13.65;58.56
72612;BME280;60655;52.182;4.474;2023-04-10T10:20:43;101412.84;;;13.83;59.15
72612;BME280;60655;52.182;4.474;2023-04-10T10:22:45;101410.75;;;13.85;59.51
72612;BME280;60655;52.182;4.474;2023-04-10T10:24:47;101413.63;;;14.02;58.38
72612;BME280;60655;52.182;4.474;2023-04-10T10:26:49;101402.56;;;13.98;58.32
72612;BME280;60655;52.182;4.474;2023-04-10T10:28:51;101395.75;;;14.02;58.79
72612;BME280;60655;52.182;4.474;2023-04-10T10:30:55;101385.34;;;14.12;58.19
72612;BME280;60655;52.182;4.474;2023-04-10T10:32:57;101366.66;;;13.94;56.12
72612;BME280;60655;52.182;4.474;2023-04-10T10:34:59;101365.09;;;14.05;56.67
72612;BME280;60655;52.182;4.474;2023-04-10T10:37:03;101357.25;;;14.22;57.28
72612;BME280;60655;52.182;4.474;2023-04-10T10:41:43;101342.81;;;14.41;55.93
72612;BME280;60655;52.182;4.474;2023-04-10T10:43:58;101348.19;;;14.41;55.98
72612;BME280;60655;52.182;4.474;2023-04-10T10:46:03;101340.97;;;14.41;57.08
72612;BME280;60655;52.182;4.474;2023-04-10T10:48:07;101338.41;;;14.46;56.77
72612;BME280;60655;52.182;4.474;2023-04-10T10:50:08;101335.84;;;14.51;56.39
72612;BME280;60655;52.182;4.474;2023-04-10T10:52:09;101321.81;;;14.56;55.79
72612;BME280;60655;52.182;4.474;2023-04-10T10:56:33;101308.44;;;15.03;54.83
72612;BME280;60655;52.182;4.474;2023-04-10T10:58:51;101306.34;;;15.05;55.15
72612;BME280;60655;52.182;4.474;2023-04-10T11:05:07;101288.69;;;14.92;54.79